Time;durP1;ratioP1;P1;durP2;ratioP2;P2;SDS_P1;SDS_P2;PMS_P1;PMS_P2;Temp;Humidity;BMP_temperature;BMP_pressure;BME280_temperature;BME280_humidity;BME280_pressure;Samples;Min_cycle;Max_cycle;Signal;HPM_P1;HPM_P2
2022/12/23 00:01:05;;;;;;;110.35;40.38;;;7.20;99.90;;;;;;5113610;27;20467;-47
2022/12/23 00:03:32;;;;;;;133.75;43.67;;;7.10;99.90;;;;;;5117178;27;20047;-43
2022/12/23 00:05:58;;;;;;;161.15;46.83;;;7.20;99.90;;;;;;5132308;27;20053;-46
2022/12/23 00:08:26;;;;;;;201.00;46.90;;;7.20;99.90;;;;;;5139013;27;20440;-44
2022/12/23 00:10:54;;;;;;;140.52;45.42;;;7.10;99.90;;;;;;5134003;27;20058;-42
2022/12/23 00:16:12;;;;;;;131.30;46.30;;;7.00;99.90;;;;;;5141905;27;20544;-45
2022/12/23 00:18:38;;;;;;;106.28;43.47;;;7.00;99.90;;;;;;5134513;27;20476;-42
2022/12/23 00:21:07;;;;;;;131.70;45.53;;;7.10;99.90;;;;;;5124373;27;20120;-47
2022/12/23 00:23:34;;;;;;;116.55;43.53;;;7.10;99.90;;;;;;5143360;27;20060;-44
2022/12/23 00:26:00;;;;;;;140.95;48.95;;;7.00;99.90;;;;;;5139279;27;20557;-44
2022/12/23 00:28:27;;;;;;;132.38;43.85;;;7.00;99.90;;;;;;5132826;27;20289;-43
2022/12/23 00:31:04;;;;;;;177.65;47.00;;;7.00;99.90;;;;;;5125551;27;20050;-42
2022/12/23 00:33:33;;;;;;;148.02;43.45;;;7.00;99.90;;;;;;5121672;27;20449;-44
2022/12/23 00:35:59;;;;;;;136.88;44.03;;;7.20;99.90;;;;;;5120970;27;20097;-49
2022/12/23 00:44:00;;;;;;;129.40;42.85;;;7.00;99.90;;;;;;5122034;27;20386;-45
2022/12/23 00:46:26;;;;;;;126.70;41.95;;;7.10;99.90;;;;;;5121441;27;20052;-44
2022/12/23 00:49:53;;;;;;;131.68;43.78;;;7.00;99.90;;;;;;5126781;27;20058;-44
2022/12/23 00:51:47;;;;;;;105.13;40.92;;;7.10;99.90;;;;;;5123493;27;20123;-45
2022/12/23 00:54:13;;;;;;;119.68;42.85;;;7.00;99.90;;;;;;5106794;27;20153;-43
2022/12/23 00:56:38;;;;;;;142.20;45.55;;;7.00;99.90;;;;;;5122386;27;20089;-45
2022/12/23 00:59:04;;;;;;;128.90;43.83;;;7.20;99.90;;;;;;5121649;27;20050;-44
2022/12/23 01:07:00;;;;;;;118.35;43.05;;;7.10;99.90;;;;;;5117967;27;20898;-46
2022/12/23 01:09:26;;;;;;;143.48;44.92;;;7.10;99.90;;;;;;5119064;27;20047;-48
2022/12/23 01:11:52;;;;;;;120.30;42.95;;;7.10;99.90;;;;;;5104117;27;20381;-44
2022/12/23 01:14:18;;;;;;;123.60;41.95;;;7.10;99.90;;;;;;5138823;27;20045;-42
2022/12/23 01:16:44;;;;;;;114.28;42.95;;;7.00;99.90;;;;;;5131165;27;20043;-45
2022/12/23 01:19:09;;;;;;;128.85;41.13;;;7.00;99.90;;;;;;5112524;27;20055;-44
2022/12/23 01:21:35;;;;;;;182.02;44.13;;;7.00;99.90;;;;;;5138673;27;20105;-44
2022/12/23 01:24:01;;;;;;;118.35;40.65;;;7.00;99.90;;;;;;5138871;27;20046;-46
2022/12/23 01:26:27;;;;;;;126.60;42.75;;;7.00;99.90;;;;;;5131139;27;20092;-43
2022/12/23 01:28:57;;;;;;;128.43;42.70;;;7.00;99.90;;;;;;5117871;27;20095;-42
2022/12/23 01:31:24;;;;;;;107.93;42.03;;;7.20;99.90;;;;;;5125463;27;20042;-45
2022/12/23 01:33:50;;;;;;;142.52;44.58;;;7.00;99.90;;;;;;5138190;27;20465;-47
2022/12/23 01:36:17;;;;;;;117.78;41.97;;;7.00;99.90;;;;;;5137211;27;20081;-45
2022/12/23 01:38:43;;;;;;;122.07;42.70;;;7.00;99.90;;;;;;5123771;27;20051;-48
2022/12/23 01:44:42;;;;;;;116.82;43.33;;;7.20;99.90;;;;;;5138792;27;20747;-46
2022/12/23 01:47:14;;;;;;;156.52;43.85;;;7.00;99.90;;;;;;5134090;27;20401;-45
2022/12/23 01:49:41;;;;;;;116.65;39.92;;;7.10;99.90;;;;;;5129047;27;20051;-43
2022/12/23 01:52:07;;;;;;;137.38;43.50;;;7.20;99.90;;;;;;5132667;27;20118;-44
2022/12/23 01:54:34;;;;;;;115.45;41.50;;;7.00;99.90;;;;;;5129237;27;20050;-42
2022/12/23 01:57:00;;;;;;;110.90;41.13;;;7.20;99.90;;;;;;5119921;27;20047;-47
2022/12/23 02:04:55;;;;;;;119.72;41.10;;;7.10;99.90;;;;;;5122057;27;20055;-43
2022/12/23 02:10:06;;;;;;;142.73;44.75;;;7.20;99.90;;;;;;5136762;27;20082;-44
2022/12/23 02:12:44;;;;;;;137.93;43.38;;;7.20;99.90;;;;;;5128249;27;20047;-47
2022/12/23 02:18:10;;;;;;;130.65;42.65;;;7.00;99.90;;;;;;5098830;27;20050;-45
2022/12/23 02:20:38;;;;;;;119.78;42.42;;;7.20;99.90;;;;;;5117143;27;21206;-47
2022/12/23 02:23:07;;;;;;;155.38;45.03;;;7.00;99.90;;;;;;5116862;27;20047;-45
2022/12/23 02:26:00;;;;;;;135.00;43.53;;;7.20;99.90;;;;;;5116393;27;20043;-46
2022/12/23 02:28:38;;;;;;;152.02;44.88;;;7.20;99.90;;;;;;5117215;27;20825;-48
2022/12/23 02:31:20;;;;;;;131.82;43.42;;;7.00;99.90;;;;;;5116957;27;20472;-46
2022/12/23 02:33:52;;;;;;;181.60;46.03;;;7.00;99.90;;;;;;5116769;27;20046;-44
2022/12/23 02:36:48;;;;;;;172.77;44.70;;;7.00;99.90;;;;;;5115492;27;20059;-43
2022/12/23 02:39:32;;;;;;;181.50;46.15;;;7.00;99.90;;;;;;5134314;27;20292;-43
2022/12/23 02:42:19;;;;;;;171.80;45.40;;;7.20;99.90;;;;;;5123075;27;20498;-46
2022/12/23 02:44:55;;;;;;;213.05;48.38;;;7.00;99.90;;;;;;5116549;27;20051;-45
2022/12/23 02:47:26;;;;;;;164.82;48.28;;;7.00;99.90;;;;;;5120804;27;20063;-43
2022/12/23 02:49:59;;;;;;;133.45;42.67;;;7.00;99.90;;;;;;5137303;27;20535;-47
2022/12/23 02:52:30;;;;;;;139.10;45.25;;;7.20;99.90;;;;;;5094761;27;20043;-43
2022/12/23 02:55:06;;;;;;;171.25;46.72;;;7.00;99.90;;;;;;5132586;27;20068;-44
2022/12/23 02:57:36;;;;;;;195.95;48.13;;;7.00;99.90;;;;;;5125121;27;20043;-48
2022/12/23 03:00:02;;;;;;;117.05;42.63;;;7.00;99.90;;;;;;5121765;27;20035;-46
2022/12/23 03:02:32;;;;;;;128.27;42.72;;;7.00;99.90;;;;;;5103530;27;20378;-43
2022/12/23 03:04:57;;;;;;;165.73;45.03;;;7.20;99.90;;;;;;5096765;27;20469;-46
2022/12/23 03:07:36;;;;;;;123.25;41.45;;;7.10;99.90;;;;;;5114570;27;20572;-46
2022/12/23 03:10:28;;;;;;;121.22;39.05;;;7.10;99.90;;;;;;5120905;27;20368;-44
2022/12/23 03:13:11;;;;;;;155.13;39.70;;;7.00;99.90;;;;;;5123007;27;20420;-48
2022/12/23 03:15:55;;;;;;;120.47;38.97;;;7.00;99.90;;;;;;5126073;27;20046;-46
2022/12/23 03:18:43;;;;;;;107.53;35.97;;;7.00;99.90;;;;;;5115713;27;20077;-47
2022/12/23 03:21:23;;;;;;;102.03;35.78;;;7.10;99.90;;;;;;5110696;27;20551;-44
2022/12/23 03:24:27;;;;;;;88.07;32.97;;;7.00;99.90;;;;;;5115505;27;20112;-44
2022/12/23 03:27:11;;;;;;;88.68;33.70;;;6.90;99.90;;;;;;5040620;28;20079;-44
2022/12/23 03:29:45;;;;;;;118.20;33.25;;;7.00;99.90;;;;;;5038263;28;20056;-46
2022/12/23 03:32:13;;;;;;;113.10;32.70;;;6.90;99.90;;;;;;5038097;28;20049;-48
2022/12/23 03:34:44;;;;;;;104.18;32.08;;;6.80;99.90;;;;;;5039030;28;20110;-44
2022/12/23 03:37:13;;;;;;;101.75;30.65;;;6.70;99.90;;;;;;5048776;28;20052;-45
2022/12/23 03:39:45;;;;;;;96.35;29.13;;;6.70;99.90;;;;;;5040578;28;20054;-44
2022/12/23 03:42:27;;;;;;;103.55;31.20;;;6.80;99.90;;;;;;5035530;28;20052;-48
2022/12/23 03:44:55;;;;;;;113.72;29.10;;;6.60;99.90;;;;;;5051594;28;20065;-46
2022/12/23 03:47:33;;;;;;;102.05;30.48;;;6.80;99.90;;;;;;5031255;28;20060;-44
2022/12/23 03:50:06;;;;;;;156.70;32.67;;;6.80;99.90;;;;;;5046049;28;20068;-45
2022/12/23 03:52:57;;;;;;;154.27;34.53;;;6.60;99.90;;;;;;5034785;28;20057;-45
2022/12/23 03:55:47;;;;;;;130.93;32.25;;;6.70;99.90;;;;;;5026037;28;20056;-46
2022/12/23 03:58:32;;;;;;;110.50;31.80;;;6.60;99.90;;;;;;5044699;28;20097;-46
2022/12/23 04:01:08;;;;;;;103.95;29.90;;;6.70;99.90;;;;;;5041891;28;20625;-46
2022/12/23 04:04:04;;;;;;;88.68;29.83;;;6.50;99.90;;;;;;5093965;27;20269;-49
2022/12/23 04:06:41;;;;;;;80.63;28.73;;;6.50;99.90;;;;;;5106305;27;20055;-49
2022/12/23 04:09:07;;;;;;;80.30;29.50;;;6.50;99.90;;;;;;5135731;27;20049;-45
2022/12/23 04:11:34;;;;;;;100.25;29.80;;;6.60;99.90;;;;;;5101131;27;20421;-45
2022/12/23 04:14:00;;;;;;;93.85;29.92;;;6.60;99.90;;;;;;5136188;27;20313;-45
2022/12/23 04:16:27;;;;;;;113.32;30.80;;;6.50;99.90;;;;;;5117989;27;20055;-45
2022/12/23 04:18:53;;;;;;;89.63;30.45;;;6.50;99.90;;;;;;5115804;27;20047;-45
2022/12/23 04:21:18;;;;;;;80.70;28.38;;;6.50;99.90;;;;;;5129107;27;20509;-46
2022/12/23 04:23:44;;;;;;;104.03;29.98;;;6.50;99.90;;;;;;5115127;27;20082;-44
2022/12/23 04:26:09;;;;;;;112.07;31.50;;;6.70;99.90;;;;;;5113692;27;20047;-47
2022/12/23 04:28:35;;;;;;;91.70;30.90;;;6.50;99.90;;;;;;5115188;27;20101;-45
2022/12/23 04:31:01;;;;;;;143.02;34.00;;;6.70;99.90;;;;;;5114116;27;20131;-44
2022/12/23 04:33:26;;;;;;;106.00;31.17;;;6.70;99.90;;;;;;5117252;27;20511;-45
2022/12/23 04:35:52;;;;;;;98.65;30.45;;;6.60;99.90;;;;;;5099225;27;20051;-48
2022/12/23 04:38:18;;;;;;;92.15;28.25;;;6.70;99.90;;;;;;5118472;27;20557;-43
2022/12/23 04:40:46;;;;;;;90.05;29.90;;;6.70;99.90;;;;;;5122111;27;20512;-44
2022/12/23 04:43:13;;;;;;;142.20;31.55;;;6.60;99.90;;;;;;5108800;27;20101;-44
2022/12/23 04:45:38;;;;;;;92.93;27.40;;;6.50;99.90;;;;;;5117831;27;20276;-43
2022/12/23 04:48:04;;;;;;;84.57;27.13;;;6.40;99.90;;;;;;5118844;27;20043;-45
2022/12/23 04:50:30;;;;;;;94.00;28.45;;;6.50;99.90;;;;;;5118602;27;20058;-48
2022/12/23 04:52:55;;;;;;;99.95;31.20;;;6.50;99.90;;;;;;5099887;27;20516;-44
2022/12/23 04:55:21;;;;;;;123.43;30.75;;;6.40;99.90;;;;;;5117410;27;20413;-46
2022/12/23 04:57:47;;;;;;;100.47;30.58;;;6.50;99.90;;;;;;5117930;27;20474;-42
2022/12/23 05:00:13;;;;;;;91.97;28.02;;;6.50;99.90;;;;;;5134100;27;20096;-44
2022/12/23 05:02:38;;;;;;;103.40;30.25;;;6.40;99.90;;;;;;5128575;27;20054;-44
2022/12/23 05:05:04;;;;;;;107.40;31.13;;;6.40;99.90;;;;;;5119873;27;20393;-45
2022/12/23 05:07:30;;;;;;;122.90;33.22;;;6.40;99.90;;;;;;5117326;27;20131;-47
2022/12/23 05:10:00;;;;;;;108.32;31.88;;;6.60;99.90;;;;;;5118272;27;20547;-45
2022/12/23 05:12:27;;;;;;;103.25;30.40;;;6.40;99.90;;;;;;5127988;27;20221;-49
2022/12/23 05:14:53;;;;;;;116.10;30.77;;;6.50;99.90;;;;;;5120076;27;20055;-44
2022/12/23 05:17:18;;;;;;;92.75;30.58;;;6.60;99.90;;;;;;5129238;27;20046;-44
2022/12/23 05:19:44;;;;;;;106.28;29.48;;;6.40;99.90;;;;;;5134278;27;20079;-46
2022/12/23 05:22:10;;;;;;;137.98;31.25;;;6.40;99.90;;;;;;5130027;27;20042;-44
2022/12/23 05:24:35;;;;;;;82.45;29.13;;;6.40;99.90;;;;;;5124489;27;20524;-46
2022/12/23 05:27:01;;;;;;;96.13;28.77;;;6.40;99.90;;;;;;5127036;27;20280;-44
2022/12/23 05:29:27;;;;;;;88.20;28.60;;;6.60;99.90;;;;;;5100449;27;20050;-46
2022/12/23 05:31:52;;;;;;;87.50;28.05;;;6.40;99.90;;;;;;5118713;27;20554;-45
2022/12/23 05:34:18;;;;;;;105.38;31.50;;;6.40;99.90;;;;;;5103640;27;20118;-43
2022/12/23 05:36:44;;;;;;;89.45;28.95;;;6.40;99.90;;;;;;5137735;27;20039;-43
2022/12/23 05:39:09;;;;;;;89.10;28.35;;;6.50;99.90;;;;;;5119577;27;20061;-49
2022/12/23 05:41:35;;;;;;;83.93;28.42;;;6.60;99.90;;;;;;5127158;27;20561;-43
2022/12/23 05:44:01;;;;;;;98.28;28.10;;;6.60;99.90;;;;;;5099496;27;20054;-43
2022/12/23 05:46:26;;;;;;;81.80;27.70;;;6.60;99.90;;;;;;5116602;27;20047;-45
2022/12/23 05:48:52;;;;;;;92.53;29.27;;;6.50;99.90;;;;;;5117474;27;20043;-47
2022/12/23 05:51:18;;;;;;;93.18;29.70;;;6.50;99.90;;;;;;5118207;27;20138;-45
2022/12/23 05:53:43;;;;;;;111.43;31.90;;;6.70;99.90;;;;;;5117432;27;20051;-43
2022/12/23 05:56:09;;;;;;;357.25;44.80;;;6.50;99.90;;;;;;5116780;27;20105;-43
2022/12/23 05:58:34;;;;;;;318.58;42.67;;;6.60;99.90;;;;;;5117416;27;20054;-50
2022/12/23 06:01:02;;;;;;;154.43;35.88;;;6.60;99.90;;;;;;5116666;27;20493;-45
2022/12/23 06:03:27;;;;;;;163.65;36.30;;;6.50;99.90;;;;;;5117656;27;20054;-45
2022/12/23 06:05:53;;;;;;;210.60;38.88;;;6.40;99.90;;;;;;5116816;27;20493;-45
2022/12/23 06:08:19;;;;;;;164.27;37.40;;;6.60;99.90;;;;;;5120859;27;20047;-46
2022/12/23 06:10:45;;;;;;;280.10;41.67;;;6.50;99.90;;;;;;5118365;27;20042;-46
2022/12/23 06:13:11;;;;;;;252.98;41.15;;;6.40;99.90;;;;;;5121679;27;20389;-44
2022/12/23 06:15:37;;;;;;;234.45;39.17;;;6.40;99.90;;;;;;5126728;27;20047;-47
2022/12/23 06:18:03;;;;;;;214.25;40.72;;;6.30;99.90;;;;;;5137678;27;20979;-46
2022/12/23 06:20:28;;;;;;;161.30;37.45;;;6.40;99.90;;;;;;5137590;27;20043;-43
2022/12/23 06:22:54;;;;;;;407.67;48.45;;;6.30;99.90;;;;;;5118832;27;20074;-43
2022/12/23 06:25:20;;;;;;;337.88;43.35;;;6.30;99.90;;;;;;5115413;27;20167;-43
2022/12/23 06:27:45;;;;;;;491.70;47.83;;;6.40;99.90;;;;;;5121092;27;20058;-45
2022/12/23 06:30:11;;;;;;;425.20;48.08;;;6.30;99.90;;;;;;5126170;27;20066;-43
2022/12/23 06:32:37;;;;;;;464.60;48.25;;;6.40;99.90;;;;;;5130507;27;20047;-44
2022/12/23 06:35:04;;;;;;;443.95;47.50;;;6.40;99.90;;;;;;5127537;27;20046;-45
2022/12/23 06:37:29;;;;;;;230.10;37.13;;;6.50;99.90;;;;;;5082007;27;20066;-44
2022/12/23 06:39:55;;;;;;;339.67;42.83;;;6.40;99.90;;;;;;5097653;27;20409;-44
2022/12/23 06:42:20;;;;;;;399.77;44.20;;;6.30;99.90;;;;;;5134707;27;20039;-42
2022/12/23 06:44:46;;;;;;;516.03;49.65;;;6.50;99.90;;;;;;5124480;27;20075;-44
2022/12/23 06:47:12;;;;;;;400.15;45.35;;;6.30;99.90;;;;;;5116162;27;20153;-44
2022/12/23 06:49:37;;;;;;;359.48;44.80;;;6.30;99.90;;;;;;5116082;27;20090;-47
2022/12/23 06:52:03;;;;;;;192.82;37.65;;;6.50;99.90;;;;;;5116030;27;20146;-45
2022/12/23 06:54:29;;;;;;;212.80;38.25;;;6.40;99.90;;;;;;5109860;27;20783;-45
2022/12/23 06:56:54;;;;;;;237.75;39.72;;;6.50;99.90;;;;;;5120614;27;20043;-49
2022/12/23 06:59:20;;;;;;;178.88;36.75;;;6.30;99.90;;;;;;5136417;27;20085;-45
2022/12/23 07:01:46;;;;;;;149.30;36.63;;;6.50;99.90;;;;;;5136505;27;20049;-44
2022/12/23 07:04:11;;;;;;;224.20;39.60;;;6.40;99.90;;;;;;5137392;27;20053;-44
2022/12/23 07:06:38;;;;;;;114.05;34.83;;;6.50;99.90;;;;;;5118926;27;20057;-46
2022/12/23 07:09:05;;;;;;;109.47;33.15;;;6.50;99.90;;;;;;5126117;27;20050;-45
2022/12/23 07:11:30;;;;;;;145.00;34.45;;;6.30;99.90;;;;;;5120584;27;20058;-45
2022/12/23 07:13:56;;;;;;;135.85;35.47;;;6.30;99.90;;;;;;5116366;27;20058;-46
2022/12/23 07:16:22;;;;;;;136.65;34.42;;;6.40;99.90;;;;;;5096392;27;20059;-49
2022/12/23 07:18:47;;;;;;;108.68;30.67;;;6.40;99.90;;;;;;5101081;27;20047;-50
2022/12/23 07:21:13;;;;;;;117.25;32.55;;;6.30;99.90;;;;;;5115449;27;20046;-43
2022/12/23 07:23:39;;;;;;;103.57;30.33;;;6.40;99.90;;;;;;5115535;27;20473;-44
2022/12/23 07:26:04;;;;;;;98.75;31.40;;;6.40;99.90;;;;;;5095859;27;20043;-46
2022/12/23 07:28:30;;;;;;;105.18;32.47;;;6.50;99.90;;;;;;5103183;27;20134;-47
2022/12/23 07:30:56;;;;;;;105.22;33.47;;;6.40;99.90;;;;;;5116674;27;20154;-48
2022/12/23 07:33:21;;;;;;;82.78;29.83;;;6.40;99.90;;;;;;5114755;27;20046;-45
2022/12/23 07:35:47;;;;;;;90.00;29.88;;;6.50;99.90;;;;;;5115340;27;20038;-44
2022/12/23 07:38:12;;;;;;;79.10;27.80;;;6.50;99.90;;;;;;5119100;27;20050;-48
2022/12/23 07:40:38;;;;;;;90.43;28.67;;;6.40;99.90;;;;;;5116622;27;20432;-42
2022/12/23 07:43:04;;;;;;;88.07;29.95;;;6.60;99.90;;;;;;5115960;27;20365;-46
2022/12/23 07:45:30;;;;;;;97.85;29.40;;;6.60;99.90;;;;;;5109439;27;20054;-46
2022/12/23 07:47:58;;;;;;;81.10;29.15;;;6.70;99.90;;;;;;5097227;28;20575;-43
2022/12/23 07:50:24;;;;;;;101.18;31.00;;;6.50;99.90;;;;;;5118154;27;20047;-43
2022/12/23 07:52:51;;;;;;;87.70;29.70;;;6.50;99.90;;;;;;5127229;27;20047;-47
2022/12/23 07:55:17;;;;;;;69.03;26.25;;;6.50;99.90;;;;;;5098215;27;20544;-42
2022/12/23 07:57:47;;;;;;;77.20;27.80;;;6.70;99.90;;;;;;5123901;27;20053;-46
2022/12/23 08:00:13;;;;;;;73.07;28.38;;;6.70;99.90;;;;;;5132476;27;20319;-47
2022/12/23 08:02:39;;;;;;;147.30;30.63;;;6.70;99.90;;;;;;5125960;27;20045;-42
2022/12/23 08:05:05;;;;;;;79.60;25.02;;;6.50;99.90;;;;;;5124522;27;20083;-47
2022/12/23 08:07:31;;;;;;;84.80;25.60;;;6.60;99.90;;;;;;5117167;27;20074;-43
2022/12/23 08:09:57;;;;;;;230.32;31.27;;;6.60;99.90;;;;;;5133986;27;20091;-48
2022/12/23 08:12:23;;;;;;;112.95;27.20;;;6.50;99.90;;;;;;5127570;27;20094;-43
2022/12/23 08:14:50;;;;;;;82.20;25.63;;;6.50;99.90;;;;;;5107242;27;20043;-42
2022/12/23 08:17:15;;;;;;;117.20;28.35;;;6.50;99.90;;;;;;5124646;27;20100;-47
2022/12/23 08:19:41;;;;;;;91.05;26.92;;;6.60;99.90;;;;;;5120069;27;20051;-45
2022/12/23 08:22:07;;;;;;;94.03;28.00;;;6.40;99.90;;;;;;5099449;27;20055;-45
2022/12/23 08:24:32;;;;;;;84.55;27.55;;;6.60;99.90;;;;;;5135107;27;20323;-48
2022/12/23 08:26:58;;;;;;;127.53;30.85;;;6.40;99.90;;;;;;5127653;27;20138;-43
2022/12/23 08:29:23;;;;;;;86.88;28.55;;;6.60;99.90;;;;;;5130310;27;20043;-45
2022/12/23 08:31:49;;;;;;;121.47;28.75;;;6.60;99.90;;;;;;5108378;27;20835;-43
2022/12/23 08:34:15;;;;;;;114.85;30.45;;;6.60;99.90;;;;;;5102425;27;20051;-47
2022/12/23 08:36:41;;;;;;;98.60;29.35;;;6.50;99.90;;;;;;5118219;27;20058;-43
2022/12/23 08:39:09;;;;;;;88.35;29.30;;;6.50;99.90;;;;;;5100736;27;20489;-44
2022/12/23 08:41:39;;;;;;;122.70;30.35;;;6.60;99.90;;;;;;5100259;27;20477;-45
2022/12/23 08:44:05;;;;;;;144.70;32.30;;;6.50;99.90;;;;;;5118574;27;20488;-45
2022/12/23 08:46:31;;;;;;;107.28;29.88;;;6.60;99.90;;;;;;5118703;27;20050;-43
2022/12/23 08:48:57;;;;;;;72.30;25.55;;;6.50;99.90;;;;;;5118659;27;20058;-43
2022/12/23 08:51:24;;;;;;;114.13;31.33;;;6.60;99.90;;;;;;5118642;27;20055;-43
2022/12/23 08:53:51;;;;;;;74.50;26.02;;;6.70;99.90;;;;;;5126035;27;20155;-44
2022/12/23 08:56:20;;;;;;;52.20;25.30;;;6.70;99.90;;;;;;5128075;27;20049;-45
2022/12/23 08:58:48;;;;;;;77.97;28.55;;;6.80;99.90;;;;;;5101313;27;20055;-44
2022/12/23 09:01:16;;;;;;;63.55;26.85;;;6.90;99.90;;;;;;5118704;27;20047;-44
2022/12/23 09:03:43;;;;;;;86.15;29.77;;;6.90;99.90;;;;;;5096515;27;20055;-47
2022/12/23 09:06:12;;;;;;;86.18;36.25;;;6.90;99.90;;;;;;5117607;27;20059;-43
2022/12/23 09:08:38;;;;;;;86.18;33.90;;;6.80;99.90;;;;;;5128407;27;20043;-44
2022/12/23 09:11:07;;;;;;;116.60;32.40;;;6.80;99.90;;;;;;5133332;27;20043;-48
2022/12/23 09:13:32;;;;;;;103.45;31.30;;;6.80;99.90;;;;;;5125803;27;20051;-44
2022/12/23 09:15:58;;;;;;;67.50;29.52;;;6.90;99.90;;;;;;5130883;27;20057;-42
2022/12/23 09:18:23;;;;;;;102.22;30.90;;;7.00;99.90;;;;;;5133212;27;20061;-43
2022/12/23 09:20:57;;;;;;;82.60;30.42;;;7.10;99.90;;;;;;5115246;27;20047;-43
2022/12/23 09:23:22;;;;;;;65.50;27.10;;;7.00;99.90;;;;;;5128869;27;20046;-46
2022/12/23 09:25:48;;;;;;;74.70;27.33;;;6.90;99.90;;;;;;5131369;27;20046;-43
2022/12/23 09:28:13;;;;;;;83.82;27.13;;;7.00;99.90;;;;;;5126754;27;20092;-47
2022/12/23 09:30:39;;;;;;;83.97;26.92;;;7.10;99.90;;;;;;5118170;27;20609;-43
2022/12/23 09:33:05;;;;;;;74.50;26.60;;;7.00;99.90;;;;;;5115504;27;20134;-46
2022/12/23 09:35:30;;;;;;;67.85;26.90;;;7.00;99.90;;;;;;5097174;27;20059;-45
2022/12/23 09:37:56;;;;;;;63.40;26.80;;;7.10;99.90;;;;;;5119175;27;20211;-41
2022/12/23 09:40:22;;;;;;;68.05;27.10;;;7.00;99.90;;;;;;5120704;27;20043;-47
2022/12/23 09:42:53;;;;;;;65.63;26.48;;;7.10;99.90;;;;;;5115410;27;20081;-47
2022/12/23 09:45:40;;;;;;;97.90;32.35;;;7.00;99.90;;;;;;5108087;27;20082;-46
2022/12/23 09:48:12;;;;;;;93.85;36.72;;;7.10;99.90;;;;;;5126082;27;20065;-46
2022/12/23 09:50:39;;;;;;;63.08;27.40;;;7.20;99.90;;;;;;5124139;27;20046;-46
2022/12/23 09:53:11;;;;;;;56.83;25.35;;;7.20;99.90;;;;;;5112195;27;20154;-46
2022/12/23 09:56:00;;;;;;;67.25;27.13;;;7.20;99.90;;;;;;5118348;27;20511;-45
2022/12/23 09:58:39;;;;;;;50.00;24.13;;;7.10;99.90;;;;;;5117330;27;20965;-45
2022/12/23 10:01:27;;;;;;;59.05;24.98;;;7.10;99.90;;;;;;5116651;27;20090;-44
2022/12/23 10:04:05;;;;;;;53.55;25.17;;;7.10;99.90;;;;;;5097435;27;20825;-44
2022/12/23 10:06:33;;;;;;;57.72;26.00;;;7.20;99.90;;;;;;5115931;27;20122;-47
2022/12/23 10:09:04;;;;;;;60.03;26.98;;;7.10;99.90;;;;;;5098669;27;20066;-45
2022/12/23 10:11:56;;;;;;;60.47;27.23;;;7.20;99.90;;;;;;5115697;27;20051;-45
2022/12/23 10:14:30;;;;;;;45.08;22.42;;;7.30;99.90;;;;;;5111399;27;20051;-42
2022/12/23 10:16:59;;;;;;;65.53;24.92;;;7.10;99.90;;;;;;5097340;27;20051;-48
2022/12/23 10:19:40;;;;;;;71.82;25.48;;;7.30;99.90;;;;;;5117677;27;20123;-43
2022/12/23 10:22:33;;;;;;;55.92;23.52;;;7.20;99.90;;;;;;5097975;27;20151;-50
2022/12/23 10:25:02;;;;;;;55.55;24.38;;;7.10;99.90;;;;;;5129563;27;20046;-43
2022/12/23 10:27:35;;;;;;;62.50;24.00;;;7.30;99.90;;;;;;5115810;27;20567;-47
2022/12/23 10:30:17;;;;;;;66.68;25.60;;;7.10;99.90;;;;;;5134784;27;20047;-45
2022/12/23 10:33:12;;;;;;;62.35;25.27;;;7.10;99.90;;;;;;5134999;27;20141;-46
2022/12/23 10:36:16;;;;;;;48.38;22.77;;;7.30;99.90;;;;;;5031209;28;20608;-46
2022/12/23 10:39:07;;;;;;;42.00;21.48;;;7.20;99.90;;;;;;5039177;28;20052;-43
2022/12/23 10:41:45;;;;;;;56.88;24.83;;;7.20;99.90;;;;;;5040894;28;20048;-44
2022/12/23 10:44:50;;;;;;;48.42;20.52;;;7.20;99.90;;;;;;5031185;28;20063;-43
2022/12/23 10:47:53;;;;;;;42.70;20.98;;;7.30;99.90;;;;;;5044126;28;20056;-48
2022/12/23 10:50:37;;;;;;;32.78;18.50;;;7.40;99.90;;;;;;5041315;28;20121;-46
2022/12/23 10:53:08;;;;;;;46.38;20.15;;;7.20;99.90;;;;;;5034909;28;20057;-45
2022/12/23 10:55:37;;;;;;;44.72;19.17;;;7.40;99.90;;;;;;5033902;28;20048;-49
2022/12/23 10:58:15;;;;;;;50.80;20.65;;;7.50;99.90;;;;;;5015545;28;20485;-44
2022/12/23 11:00:50;;;;;;;39.22;19.08;;;7.30;99.90;;;;;;5047262;28;20571;-46
2022/12/23 11:03:39;;;;;;;38.03;19.10;;;7.30;99.90;;;;;;5024647;28;20144;-45
2022/12/23 11:06:07;;;;;;;38.45;19.27;;;7.40;99.90;;;;;;5031743;28;20068;-42
2022/12/23 11:08:35;;;;;;;57.47;20.08;;;7.40;99.90;;;;;;5031524;28;20491;-48
2022/12/23 11:11:01;;;;;;;54.70;20.52;;;7.40;99.90;;;;;;5037948;27;20045;-48
2022/12/23 11:13:40;;;;;;;56.22;20.88;;;7.50;99.90;;;;;;5096953;27;20103;-44
2022/12/23 11:16:13;;;;;;;44.72;19.58;;;7.30;99.90;;;;;;5122544;27;20133;-47
2022/12/23 11:18:52;;;;;;;42.85;18.23;;;7.30;99.90;;;;;;5129525;27;20050;-44
2022/12/23 11:21:17;;;;;;;32.25;16.42;;;7.40;99.90;;;;;;5095353;27;20505;-43
2022/12/23 11:23:43;;;;;;;37.05;16.95;;;7.50;99.90;;;;;;5128704;27;20045;-46
2022/12/23 11:26:12;;;;;;;36.45;15.90;;;7.40;99.90;;;;;;5123709;27;20089;-46
2022/12/23 11:28:48;;;;;;;36.45;16.25;;;7.50;99.90;;;;;;5119684;27;20452;-43
2022/12/23 11:31:15;;;;;;;35.08;15.38;;;7.60;99.90;;;;;;5105942;27;20552;-48
2022/12/23 11:33:55;;;;;;;32.83;15.63;;;7.70;99.90;;;;;;5106986;27;20954;-44
2022/12/23 11:36:24;;;;;;;29.27;16.45;;;7.60;99.90;;;;;;5117219;27;20051;-43
2022/12/23 11:39:11;;;;;;;36.90;17.20;;;7.70;99.90;;;;;;5126249;27;20054;-44
2022/12/23 11:41:38;;;;;;;31.75;16.13;;;7.60;99.90;;;;;;5125222;27;20046;-45
2022/12/23 11:44:15;;;;;;;32.80;17.48;;;7.60;99.90;;;;;;5104614;27;20040;-48
2022/12/23 11:46:40;;;;;;;25.13;13.10;;;7.60;99.90;;;;;;5123652;27;20047;-46
2022/12/23 11:49:45;;;;;;;25.20;13.32;;;7.70;99.90;;;;;;5135419;27;20353;-49
2022/12/23 11:52:15;;;;;;;24.50;14.43;;;7.80;99.90;;;;;;4990205;28;20564;-46
2022/12/23 11:54:53;;;;;;;19.83;12.10;;;7.80;99.90;;;;;;5019899;28;20892;-49
2022/12/23 11:57:26;;;;;;;22.40;11.07;;;7.80;99.90;;;;;;5007375;28;20053;-43
2022/12/23 11:59:58;;;;;;;22.30;12.27;;;7.70;99.90;;;;;;5023310;28;20056;-47
2022/12/23 12:02:29;;;;;;;20.40;11.77;;;7.70;99.90;;;;;;5020237;28;20052;-44
2022/12/23 12:05:00;;;;;;;21.90;10.77;;;7.80;99.90;;;;;;5023498;28;20045;-45
2022/12/23 12:07:26;;;;;;;18.33;11.20;;;7.80;99.90;;;;;;5017112;28;20042;-48
2022/12/23 12:09:56;;;;;;;17.98;9.98;;;7.70;99.90;;;;;;5023192;28;20065;-47
2022/12/23 12:12:22;;;;;;;21.33;11.70;;;7.80;99.90;;;;;;5028686;28;20140;-45
2022/12/23 12:14:51;;;;;;;17.20;10.20;;;7.70;99.90;;;;;;5004345;28;20057;-47
2022/12/23 12:17:36;;;;;;;22.20;12.13;;;7.70;99.90;;;;;;5026724;28;20049;-47
2022/12/23 12:20:05;;;;;;;20.73;10.73;;;7.80;99.90;;;;;;5030966;28;20057;-45
2022/12/23 12:22:58;;;;;;;21.30;11.77;;;7.70;99.90;;;;;;5023795;28;20067;-46
2022/12/23 12:25:45;;;;;;;20.48;12.00;;;7.70;99.90;;;;;;5011776;28;20110;-48
2022/12/23 12:28:19;;;;;;;24.95;12.32;;;7.80;99.90;;;;;;5043332;28;20505;-47
2022/12/23 12:31:17;;;;;;;28.15;14.07;;;7.70;99.90;;;;;;5126454;27;20416;-44
2022/12/23 12:34:19;;;;;;;29.23;16.85;;;7.80;99.90;;;;;;5078865;28;20091;-45
2022/12/23 12:36:53;;;;;;;34.50;18.92;;;7.70;99.90;;;;;;5078787;28;20469;-45
2022/12/23 12:39:27;;;;;;;39.53;21.58;;;7.80;99.90;;;;;;5085401;28;20154;-44
2022/12/23 12:41:58;;;;;;;;;;;7.60;99.90;;;;;;5082131;28;20438;-49
2022/12/23 12:44:42;;;;;;;30.17;16.58;;;7.60;99.90;;;;;;5091152;28;19930;-46
2022/12/23 12:47:25;;;;;;;25.92;17.75;;;7.60;99.90;;;;;;5076753;28;20040;-46
2022/12/23 12:49:59;;;;;;;25.23;15.25;;;7.60;99.90;;;;;;5041452;28;20496;-48
2022/12/23 12:52:26;;;;;;;20.73;12.93;;;7.60;99.90;;;;;;5071177;28;20067;-44
2022/12/23 12:55:02;;;;;;;19.58;12.38;;;7.50;99.90;;;;;;5069069;28;20044;-44
2022/12/23 12:57:31;;;;;;;22.52;12.23;;;7.50;99.90;;;;;;5068898;28;20135;-47
2022/12/23 12:59:58;;;;;;;25.20;12.60;;;7.40;99.90;;;;;;5058626;28;20093;-49
2022/12/23 13:02:34;;;;;;;23.55;12.43;;;7.60;99.90;;;;;;5088613;28;20544;-46
2022/12/23 13:05:12;;;;;;;20.85;11.90;;;7.40;99.90;;;;;;5074576;28;20141;-50
2022/12/23 13:07:55;;;;;;;25.60;12.30;;;7.40;99.90;;;;;;5058878;28;20044;-49
2022/12/23 13:10:33;;;;;;;26.35;12.45;;;7.40;99.90;;;;;;5089135;27;20082;-49
2022/12/23 13:13:26;;;;;;;23.13;13.45;;;7.50;99.90;;;;;;5126226;27;20210;-43
2022/12/23 13:16:17;;;;;;;26.48;15.10;;;7.50;99.90;;;;;;5123009;27;20043;-45
2022/12/23 13:19:03;;;;;;;22.25;12.48;;;7.40;99.90;;;;;;5134436;27;20484;-47
2022/12/23 13:21:50;;;;;;;26.13;13.25;;;7.40;99.90;;;;;;5136634;27;20035;-48